sensor_id;sensor_type;location;lat;lon;timestamp;P1;durP1;ratioP1;P2;durP2;ratioP2
37203;SDS011;23098;48.054;10.636;2023-03-23T00:01:10;9.85;;;6.10;;
37203;SDS011;23098;48.054;10.636;2023-03-23T00:03:38;12.70;;;6.18;;
37203;SDS011;23098;48.054;10.636;2023-03-23T00:06:04;9.85;;;6.15;;
37203;SDS011;23098;48.054;10.636;2023-03-23T00:08:35;13.07;;;8.27;;
37203;SDS011;23098;48.054;10.636;2023-03-23T00:11:15;10.82;;;6.85;;
37203;SDS011;23098;48.054;10.636;2023-03-23T00:13:44;12.02;;;7.60;;
37203;SDS011;23098;48.054;10.636;2023-03-23T00:16:10;9.55;;;6.72;;
37203;SDS011;23098;48.054;10.636;2023-03-23T00:18:53;10.63;;;6.03;;
37203;SDS011;23098;48.054;10.636;2023-03-23T00:21:24;16.00;;;8.20;;
37203;SDS011;23098;48.054;10.636;2023-03-23T00:23:57;9.77;;;7.03;;
37203;SDS011;23098;48.054;10.636;2023-03-23T00:26:24;11.10;;;6.75;;
37203;SDS011;23098;48.054;10.636;2023-03-23T00:28:53;9.20;;;6.45;;
37203;SDS011;23098;48.054;10.636;2023-03-23T00:31:19;15.90;;;6.25;;
37203;SDS011;23098;48.054;10.636;2023-03-23T00:33:44;9.57;;;6.28;;
37203;SDS011;23098;48.054;10.636;2023-03-23T00:36:11;8.43;;;5.80;;
37203;SDS011;23098;48.054;10.636;2023-03-23T00:38:38;7.93;;;5.13;;
37203;SDS011;23098;48.054;10.636;2023-03-23T00:41:05;7.72;;;5.28;;
37203;SDS011;23098;48.054;10.636;2023-03-23T00:43:31;11.55;;;5.93;;
37203;SDS011;23098;48.054;10.636;2023-03-23T00:46:02;8.40;;;5.38;;
37203;SDS011;23098;48.054;10.636;2023-03-23T00:48:33;6.45;;;4.70;;
37203;SDS011;23098;48.054;10.636;2023-03-23T00:51:00;7.85;;;5.10;;
37203;SDS011;23098;48.054;10.636;2023-03-23T00:53:30;10.55;;;5.20;;
37203;SDS011;23098;48.054;10.636;2023-03-23T00:55:57;7.32;;;5.38;;
37203;SDS011;23098;48.054;10.636;2023-03-23T00:58:22;6.70;;;5.05;;
37203;SDS011;23098;48.054;10.636;2023-03-23T01:00:48;6.90;;;5.00;;
37203;SDS011;23098;48.054;10.636;2023-03-23T01:03:13;8.63;;;5.10;;
37203;SDS011;23098;48.054;10.636;2023-03-23T01:05:42;9.00;;;5.50;;
37203;SDS011;23098;48.054;10.636;2023-03-23T01:08:12;7.45;;;5.03;;
37203;SDS011;23098;48.054;10.636;2023-03-23T01:10:39;10.20;;;5.15;;
37203;SDS011;23098;48.054;10.636;2023-03-23T01:13:05;7.57;;;5.30;;
37203;SDS011;23098;48.054;10.636;2023-03-23T01:15:31;8.00;;;5.38;;
37203;SDS011;23098;48.054;10.636;2023-03-23T01:17:57;6.82;;;4.68;;
37203;SDS011;23098;48.054;10.636;2023-03-23T01:20:23;7.38;;;5.05;;
37203;SDS011;23098;48.054;10.636;2023-03-23T01:22:51;9.48;;;5.57;;
37203;SDS011;23098;48.054;10.636;2023-03-23T01:25:17;7.47;;;5.22;;
37203;SDS011;23098;48.054;10.636;2023-03-23T01:27:44;8.68;;;4.90;;
37203;SDS011;23098;48.054;10.636;2023-03-23T01:30:10;7.25;;;5.13;;
37203;SDS011;23098;48.054;10.636;2023-03-23T01:32:37;8.07;;;5.20;;
37203;SDS011;23098;48.054;10.636;2023-03-23T01:35:03;8.15;;;5.32;;
37203;SDS011;23098;48.054;10.636;2023-03-23T01:37:29;8.98;;;5.40;;
37203;SDS011;23098;48.054;10.636;2023-03-23T01:39:56;7.22;;;5.13;;
37203;SDS011;23098;48.054;10.636;2023-03-23T01:42:22;7.72;;;5.40;;
37203;SDS011;23098;48.054;10.636;2023-03-23T01:45:17;9.05;;;5.35;;
37203;SDS011;23098;48.054;10.636;2023-03-23T01:47:44;8.20;;;5.18;;
37203;SDS011;23098;48.054;10.636;2023-03-23T01:50:16;7.93;;;4.90;;
37203;SDS011;23098;48.054;10.636;2023-03-23T01:52:42;7.78;;;5.30;;
37203;SDS011;23098;48.054;10.636;2023-03-23T01:55:08;8.43;;;4.90;;
37203;SDS011;23098;48.054;10.636;2023-03-23T01:57:34;6.70;;;5.15;;
37203;SDS011;23098;48.054;10.636;2023-03-23T02:00:02;8.63;;;5.15;;
37203;SDS011;23098;48.054;10.636;2023-03-23T02:02:33;7.32;;;5.03;;
37203;SDS011;23098;48.054;10.636;2023-03-23T02:05:02;7.15;;;4.97;;
37203;SDS011;23098;48.054;10.636;2023-03-23T02:07:33;8.30;;;5.30;;
37203;SDS011;23098;48.054;10.636;2023-03-23T02:09:59;8.32;;;5.07;;
37203;SDS011;23098;48.054;10.636;2023-03-23T02:12:25;8.52;;;5.13;;
37203;SDS011;23098;48.054;10.636;2023-03-23T02:14:51;7.93;;;5.40;;
37203;SDS011;23098;48.054;10.636;2023-03-23T02:30:49;8.65;;;5.32;;
37203;SDS011;23098;48.054;10.636;2023-03-23T02:33:40;7.20;;;4.97;;
37203;SDS011;23098;48.054;10.636;2023-03-23T02:36:30;9.35;;;5.03;;
37203;SDS011;23098;48.054;10.636;2023-03-23T02:39:05;7.32;;;5.30;;
37203;SDS011;23098;48.054;10.636;2023-03-23T02:41:45;7.15;;;4.97;;
37203;SDS011;23098;48.054;10.636;2023-03-23T02:44:16;5.75;;;4.65;;
37203;SDS011;23098;48.054;10.636;2023-03-23T02:46:43;10.07;;;4.82;;
37203;SDS011;23098;48.054;10.636;2023-03-23T02:49:09;8.20;;;4.55;;
37203;SDS011;23098;48.054;10.636;2023-03-23T02:51:39;8.02;;;5.00;;
37203;SDS011;23098;48.054;10.636;2023-03-23T02:54:08;7.10;;;4.95;;
37203;SDS011;23098;48.054;10.636;2023-03-23T02:56:36;6.07;;;4.50;;
37203;SDS011;23098;48.054;10.636;2023-03-23T02:59:03;10.82;;;5.05;;
37203;SDS011;23098;48.054;10.636;2023-03-23T03:03:57;9.18;;;5.15;;
37203;SDS011;23098;48.054;10.636;2023-03-23T03:06:47;7.80;;;4.70;;
37203;SDS011;23098;48.054;10.636;2023-03-23T03:09:26;7.60;;;5.13;;
37203;SDS011;23098;48.054;10.636;2023-03-23T03:11:58;6.75;;;4.82;;
37203;SDS011;23098;48.054;10.636;2023-03-23T03:14:37;6.43;;;4.88;;
37203;SDS011;23098;48.054;10.636;2023-03-23T03:17:25;7.22;;;5.03;;
37203;SDS011;23098;48.054;10.636;2023-03-23T03:19:58;6.80;;;4.53;;
37203;SDS011;23098;48.054;10.636;2023-03-23T03:22:31;8.75;;;5.15;;
37203;SDS011;23098;48.054;10.636;2023-03-23T03:24:58;7.70;;;5.07;;
37203;SDS011;23098;48.054;10.636;2023-03-23T03:27:25;8.43;;;4.78;;
37203;SDS011;23098;48.054;10.636;2023-03-23T03:29:53;7.95;;;4.90;;
37203;SDS011;23098;48.054;10.636;2023-03-23T03:32:24;6.70;;;4.70;;
37203;SDS011;23098;48.054;10.636;2023-03-23T03:34:56;10.65;;;4.68;;
37203;SDS011;23098;48.054;10.636;2023-03-23T03:37:24;8.05;;;4.57;;
37203;SDS011;23098;48.054;10.636;2023-03-23T03:39:50;6.32;;;4.65;;
37203;SDS011;23098;48.054;10.636;2023-03-23T03:42:16;6.53;;;4.65;;
37203;SDS011;23098;48.054;10.636;2023-03-23T03:44:41;6.30;;;5.05;;
37203;SDS011;23098;48.054;10.636;2023-03-23T03:47:07;6.80;;;4.80;;
37203;SDS011;23098;48.054;10.636;2023-03-23T03:49:32;7.78;;;5.45;;
37203;SDS011;23098;48.054;10.636;2023-03-23T03:51:58;5.97;;;4.65;;
37203;SDS011;23098;48.054;10.636;2023-03-23T03:54:25;8.27;;;4.90;;
37203;SDS011;23098;48.054;10.636;2023-03-23T03:56:51;7.18;;;4.70;;
37203;SDS011;23098;48.054;10.636;2023-03-23T03:59:22;7.30;;;4.70;;
37203;SDS011;23098;48.054;10.636;2023-03-23T04:01:48;9.02;;;4.65;;
37203;SDS011;23098;48.054;10.636;2023-03-23T04:04:18;8.60;;;5.10;;
37203;SDS011;23098;48.054;10.636;2023-03-23T04:06:44;5.70;;;4.57;;
37203;SDS011;23098;48.054;10.636;2023-03-23T04:09:10;6.57;;;4.82;;
37203;SDS011;23098;48.054;10.636;2023-03-23T04:11:35;7.15;;;4.50;;
37203;SDS011;23098;48.054;10.636;2023-03-23T04:14:01;6.78;;;4.30;;
37203;SDS011;23098;48.054;10.636;2023-03-23T04:16:27;5.72;;;4.28;;
37203;SDS011;23098;48.054;10.636;2023-03-23T04:18:54;5.72;;;4.22;;
37203;SDS011;23098;48.054;10.636;2023-03-23T04:21:21;7.65;;;5.05;;
37203;SDS011;23098;48.054;10.636;2023-03-23T04:23:46;10.65;;;4.78;;
37203;SDS011;23098;48.054;10.636;2023-03-23T04:26:12;6.78;;;4.57;;
37203;SDS011;23098;48.054;10.636;2023-03-23T04:28:38;6.25;;;4.57;;
37203;SDS011;23098;48.054;10.636;2023-03-23T04:31:04;7.70;;;4.70;;
37203;SDS011;23098;48.054;10.636;2023-03-23T04:33:29;7.90;;;4.57;;
37203;SDS011;23098;48.054;10.636;2023-03-23T04:35:56;6.90;;;4.80;;
37203;SDS011;23098;48.054;10.636;2023-03-23T04:38:26;7.00;;;4.60;;
37203;SDS011;23098;48.054;10.636;2023-03-23T04:40:52;9.45;;;4.93;;
37203;SDS011;23098;48.054;10.636;2023-03-23T04:43:19;7.95;;;4.88;;
37203;SDS011;23098;48.054;10.636;2023-03-23T04:45:46;6.18;;;4.40;;
37203;SDS011;23098;48.054;10.636;2023-03-23T04:48:26;8.80;;;4.95;;
37203;SDS011;23098;48.054;10.636;2023-03-23T04:50:54;7.40;;;5.35;;
37203;SDS011;23098;48.054;10.636;2023-03-23T04:53:20;6.50;;;4.85;;
37203;SDS011;23098;48.054;10.636;2023-03-23T04:55:46;7.40;;;4.75;;
37203;SDS011;23098;48.054;10.636;2023-03-23T04:58:15;8.88;;;4.68;;
37203;SDS011;23098;48.054;10.636;2023-03-23T05:00:41;6.22;;;4.75;;
37203;SDS011;23098;48.054;10.636;2023-03-23T05:03:14;8.60;;;4.95;;
37203;SDS011;23098;48.054;10.636;2023-03-23T05:05:43;6.47;;;4.53;;
37203;SDS011;23098;48.054;10.636;2023-03-23T05:08:12;6.20;;;4.65;;
37203;SDS011;23098;48.054;10.636;2023-03-23T05:10:38;7.75;;;4.53;;
37203;SDS011;23098;48.054;10.636;2023-03-23T05:13:04;7.22;;;4.95;;
37203;SDS011;23098;48.054;10.636;2023-03-23T05:15:30;10.32;;;6.80;;
37203;SDS011;23098;48.054;10.636;2023-03-23T05:17:56;7.70;;;5.20;;
37203;SDS011;23098;48.054;10.636;2023-03-23T05:20:22;7.85;;;4.70;;
37203;SDS011;23098;48.054;10.636;2023-03-23T05:22:48;6.97;;;4.75;;
37203;SDS011;23098;48.054;10.636;2023-03-23T05:25:14;6.00;;;4.55;;
37203;SDS011;23098;48.054;10.636;2023-03-23T05:27:40;6.72;;;5.18;;
37203;SDS011;23098;48.054;10.636;2023-03-23T05:30:13;8.98;;;5.30;;
37203;SDS011;23098;48.054;10.636;2023-03-23T05:32:43;6.25;;;4.88;;
37203;SDS011;23098;48.054;10.636;2023-03-23T05:35:09;5.63;;;4.60;;
37203;SDS011;23098;48.054;10.636;2023-03-23T05:37:36;9.82;;;4.82;;
37203;SDS011;23098;48.054;10.636;2023-03-23T05:40:03;5.75;;;3.95;;
37203;SDS011;23098;48.054;10.636;2023-03-23T05:42:31;5.75;;;4.20;;
37203;SDS011;23098;48.054;10.636;2023-03-23T05:44:58;7.45;;;4.65;;
37203;SDS011;23098;48.054;10.636;2023-03-23T05:47:24;6.53;;;4.00;;
37203;SDS011;23098;48.054;10.636;2023-03-23T05:49:50;6.03;;;4.28;;
37203;SDS011;23098;48.054;10.636;2023-03-23T05:52:16;7.18;;;4.38;;
37203;SDS011;23098;48.054;10.636;2023-03-23T05:54:42;5.97;;;3.88;;
37203;SDS011;23098;48.054;10.636;2023-03-23T05:57:08;7.00;;;4.60;;
37203;SDS011;23098;48.054;10.636;2023-03-23T05:59:34;7.07;;;4.30;;
37203;SDS011;23098;48.054;10.636;2023-03-23T06:02:00;5.25;;;4.07;;
37203;SDS011;23098;48.054;10.636;2023-03-23T06:04:25;8.45;;;4.30;;
37203;SDS011;23098;48.054;10.636;2023-03-23T06:06:51;7.20;;;4.20;;
37203;SDS011;23098;48.054;10.636;2023-03-23T06:09:17;7.32;;;4.13;;
37203;SDS011;23098;48.054;10.636;2023-03-23T06:11:44;6.85;;;4.07;;
37203;SDS011;23098;48.054;10.636;2023-03-23T06:14:10;5.15;;;3.83;;
37203;SDS011;23098;48.054;10.636;2023-03-23T06:16:36;7.90;;;3.90;;
37203;SDS011;23098;48.054;10.636;2023-03-23T06:19:02;6.63;;;4.10;;
37203;SDS011;23098;48.054;10.636;2023-03-23T06:21:29;6.20;;;4.13;;
37203;SDS011;23098;48.054;10.636;2023-03-23T06:23:58;8.40;;;3.78;;
37203;SDS011;23098;48.054;10.636;2023-03-23T06:26:25;5.53;;;3.92;;
37203;SDS011;23098;48.054;10.636;2023-03-23T06:28:53;5.63;;;4.28;;
37203;SDS011;23098;48.054;10.636;2023-03-23T06:31:19;9.68;;;4.30;;
37203;SDS011;23098;48.054;10.636;2023-03-23T06:33:45;7.63;;;4.15;;
37203;SDS011;23098;48.054;10.636;2023-03-23T06:36:12;5.22;;;3.90;;
37203;SDS011;23098;48.054;10.636;2023-03-23T06:38:37;5.47;;;3.65;;
37203;SDS011;23098;48.054;10.636;2023-03-23T06:41:03;6.07;;;3.90;;
37203;SDS011;23098;48.054;10.636;2023-03-23T06:43:29;7.03;;;3.95;;
37203;SDS011;23098;48.054;10.636;2023-03-23T06:45:58;7.80;;;4.05;;
37203;SDS011;23098;48.054;10.636;2023-03-23T06:48:24;5.28;;;4.03;;
37203;SDS011;23098;48.054;10.636;2023-03-23T06:50:51;7.20;;;4.18;;
37203;SDS011;23098;48.054;10.636;2023-03-23T06:53:26;5.82;;;3.80;;
37203;SDS011;23098;48.054;10.636;2023-03-23T06:58:27;6.97;;;3.63;;
37203;SDS011;23098;48.054;10.636;2023-03-23T07:00:54;9.48;;;4.05;;
37203;SDS011;23098;48.054;10.636;2023-03-23T07:11:01;6.05;;;3.72;;
37203;SDS011;23098;48.054;10.636;2023-03-23T07:13:26;12.65;;;4.10;;
37203;SDS011;23098;48.054;10.636;2023-03-23T07:15:52;10.38;;;3.92;;
37203;SDS011;23098;48.054;10.636;2023-03-23T07:18:18;9.60;;;3.90;;
37203;SDS011;23098;48.054;10.636;2023-03-23T07:20:48;14.10;;;4.07;;
37203;SDS011;23098;48.054;10.636;2023-03-23T07:23:15;11.75;;;3.75;;
37203;SDS011;23098;48.054;10.636;2023-03-23T07:25:42;10.23;;;3.47;;
37203;SDS011;23098;48.054;10.636;2023-03-23T07:28:10;7.25;;;3.40;;
37203;SDS011;23098;48.054;10.636;2023-03-23T07:30:37;8.65;;;3.53;;
37203;SDS011;23098;48.054;10.636;2023-03-23T07:33:04;3.83;;;3.20;;
37203;SDS011;23098;48.054;10.636;2023-03-23T07:35:31;7.28;;;3.47;;
37203;SDS011;23098;48.054;10.636;2023-03-23T07:37:58;7.75;;;3.13;;
37203;SDS011;23098;48.054;10.636;2023-03-23T07:40:24;8.93;;;3.70;;
37203;SDS011;23098;48.054;10.636;2023-03-23T07:42:52;4.90;;;3.33;;
37203;SDS011;23098;48.054;10.636;2023-03-23T07:45:20;4.00;;;3.15;;
37203;SDS011;23098;48.054;10.636;2023-03-23T07:47:46;5.28;;;3.40;;
37203;SDS011;23098;48.054;10.636;2023-03-23T07:50:11;6.70;;;3.38;;
37203;SDS011;23098;48.054;10.636;2023-03-23T07:52:38;13.15;;;3.50;;
37203;SDS011;23098;48.054;10.636;2023-03-23T07:55:06;6.93;;;3.50;;
37203;SDS011;23098;48.054;10.636;2023-03-23T07:57:34;12.65;;;4.45;;
37203;SDS011;23098;48.054;10.636;2023-03-23T07:59:59;14.90;;;3.30;;
37203;SDS011;23098;48.054;10.636;2023-03-23T08:02:25;19.63;;;3.30;;
37203;SDS011;23098;48.054;10.636;2023-03-23T08:04:51;12.80;;;3.20;;
37203;SDS011;23098;48.054;10.636;2023-03-23T08:07:18;8.10;;;3.38;;
37203;SDS011;23098;48.054;10.636;2023-03-23T08:09:45;11.90;;;3.35;;
37203;SDS011;23098;48.054;10.636;2023-03-23T08:12:12;11.07;;;3.22;;
37203;SDS011;23098;48.054;10.636;2023-03-23T08:14:38;19.55;;;3.80;;
37203;SDS011;23098;48.054;10.636;2023-03-23T08:17:07;14.10;;;3.22;;
37203;SDS011;23098;48.054;10.636;2023-03-23T08:19:36;12.60;;;2.83;;
37203;SDS011;23098;48.054;10.636;2023-03-23T08:22:05;14.82;;;2.80;;
37203;SDS011;23098;48.054;10.636;2023-03-23T08:24:31;5.85;;;2.50;;
37203;SDS011;23098;48.054;10.636;2023-03-23T08:26:57;6.45;;;2.47;;
37203;SDS011;23098;48.054;10.636;2023-03-23T08:29:24;11.57;;;2.75;;
37203;SDS011;23098;48.054;10.636;2023-03-23T08:31:49;5.35;;;2.50;;
37203;SDS011;23098;48.054;10.636;2023-03-23T08:34:15;5.60;;;2.65;;
37203;SDS011;23098;48.054;10.636;2023-03-23T08:36:41;5.78;;;2.10;;
37203;SDS011;23098;48.054;10.636;2023-03-23T08:39:09;5.90;;;2.00;;
37203;SDS011;23098;48.054;10.636;2023-03-23T08:41:36;2.67;;;1.85;;
37203;SDS011;23098;48.054;10.636;2023-03-23T08:44:02;2.60;;;2.20;;
37203;SDS011;23098;48.054;10.636;2023-03-23T08:46:28;2.83;;;1.90;;
37203;SDS011;23098;48.054;10.636;2023-03-23T08:48:54;2.65;;;2.10;;
37203;SDS011;23098;48.054;10.636;2023-03-23T08:51:19;3.28;;;2.10;;
37203;SDS011;23098;48.054;10.636;2023-03-23T08:53:46;2.28;;;2.08;;
37203;SDS011;23098;48.054;10.636;2023-03-23T08:56:12;3.90;;;2.28;;
37203;SDS011;23098;48.054;10.636;2023-03-23T08:58:38;3.03;;;2.10;;
37203;SDS011;23098;48.054;10.636;2023-03-23T09:01:05;3.70;;;2.45;;
37203;SDS011;23098;48.054;10.636;2023-03-23T09:03:32;4.20;;;2.45;;
37203;SDS011;23098;48.054;10.636;2023-03-23T09:06:00;3.22;;;2.55;;
37203;SDS011;23098;48.054;10.636;2023-03-23T09:08:27;6.15;;;2.33;;
37203;SDS011;23098;48.054;10.636;2023-03-23T09:11:00;3.55;;;2.00;;
37203;SDS011;23098;48.054;10.636;2023-03-23T09:13:27;4.30;;;2.20;;
37203;SDS011;23098;48.054;10.636;2023-03-23T09:15:53;5.57;;;2.60;;
37203;SDS011;23098;48.054;10.636;2023-03-23T09:18:19;5.18;;;2.25;;
37203;SDS011;23098;48.054;10.636;2023-03-23T09:20:45;3.08;;;2.10;;
37203;SDS011;23098;48.054;10.636;2023-03-23T09:23:11;2.90;;;2.13;;
37203;SDS011;23098;48.054;10.636;2023-03-23T09:25:38;3.78;;;1.85;;
37203;SDS011;23098;48.054;10.636;2023-03-23T09:28:04;3.35;;;2.17;;
37203;SDS011;23098;48.054;10.636;2023-03-23T09:30:31;3.38;;;2.00;;
37203;SDS011;23098;48.054;10.636;2023-03-23T09:32:59;4.45;;;2.10;;
37203;SDS011;23098;48.054;10.636;2023-03-23T09:35:30;2.50;;;1.90;;
37203;SDS011;23098;48.054;10.636;2023-03-23T09:37:59;5.90;;;2.00;;
37203;SDS011;23098;48.054;10.636;2023-03-23T09:40:45;2.50;;;1.75;;
37203;SDS011;23098;48.054;10.636;2023-03-23T09:46:15;3.35;;;2.03;;
37203;SDS011;23098;48.054;10.636;2023-03-23T09:49:17;3.13;;;1.90;;
37203;SDS011;23098;48.054;10.636;2023-03-23T09:51:49;5.18;;;2.20;;
37203;SDS011;23098;48.054;10.636;2023-03-23T09:56:54;3.60;;;2.10;;
37203;SDS011;23098;48.054;10.636;2023-03-23T09:59:35;2.20;;;1.77;;
37203;SDS011;23098;48.054;10.636;2023-03-23T10:02:18;3.10;;;2.40;;
37203;SDS011;23098;48.054;10.636;2023-03-23T10:04:54;3.28;;;2.40;;
37203;SDS011;23098;48.054;10.636;2023-03-23T10:07:23;3.65;;;2.47;;
37203;SDS011;23098;48.054;10.636;2023-03-23T10:09:52;2.78;;;2.00;;
37203;SDS011;23098;48.054;10.636;2023-03-23T10:12:24;3.85;;;2.40;;
37203;SDS011;23098;48.054;10.636;2023-03-23T10:18:10;4.95;;;2.50;;
37203;SDS011;23098;48.054;10.636;2023-03-23T10:21:14;3.40;;;2.30;;
37203;SDS011;23098;48.054;10.636;2023-03-23T10:28:58;4.10;;;2.30;;
37203;SDS011;23098;48.054;10.636;2023-03-23T10:31:36;4.60;;;2.38;;
37203;SDS011;23098;48.054;10.636;2023-03-23T10:34:15;3.38;;;2.35;;
37203;SDS011;23098;48.054;10.636;2023-03-23T10:39:54;3.55;;;2.55;;
37203;SDS011;23098;48.054;10.636;2023-03-23T10:42:28;3.78;;;2.50;;
37203;SDS011;23098;48.054;10.636;2023-03-23T10:47:42;6.57;;;2.58;;
37203;SDS011;23098;48.054;10.636;2023-03-23T10:50:13;2.38;;;2.05;;
37203;SDS011;23098;48.054;10.636;2023-03-23T10:52:42;3.40;;;2.50;;
37203;SDS011;23098;48.054;10.636;2023-03-23T10:55:22;2.92;;;2.35;;
37203;SDS011;23098;48.054;10.636;2023-03-23T10:57:59;8.75;;;2.60;;
37203;SDS011;23098;48.054;10.636;2023-03-23T11:00:26;3.53;;;2.35;;
37203;SDS011;23098;48.054;10.636;2023-03-23T11:03:01;3.65;;;2.78;;
37203;SDS011;23098;48.054;10.636;2023-03-23T11:08:36;4.35;;;2.20;;
37203;SDS011;23098;48.054;10.636;2023-03-23T11:13:45;3.10;;;2.00;;
37203;SDS011;23098;48.054;10.636;2023-03-23T11:16:41;3.35;;;2.45;;
37203;SDS011;23098;48.054;10.636;2023-03-23T11:19:31;3.03;;;2.30;;
37203;SDS011;23098;48.054;10.636;2023-03-23T11:24:34;5.18;;;2.20;;
37203;SDS011;23098;48.054;10.636;2023-03-23T11:27:09;6.43;;;2.17;;
37203;SDS011;23098;48.054;10.636;2023-03-23T11:29:52;3.08;;;1.73;;
37203;SDS011;23098;48.054;10.636;2023-03-23T11:34:48;2.90;;;1.80;;
37203;SDS011;23098;48.054;10.636;2023-03-23T11:37:35;3.20;;;1.80;;
37203;SDS011;23098;48.054;10.636;2023-03-23T11:45:21;3.00;;;1.80;;
37203;SDS011;23098;48.054;10.636;2023-03-23T11:48:01;4.55;;;1.73;;
37203;SDS011;23098;48.054;10.636;2023-03-23T11:56:23;1.85;;;1.65;;
37203;SDS011;23098;48.054;10.636;2023-03-23T11:59:02;1.58;;;1.38;;
37203;SDS011;23098;48.054;10.636;2023-03-23T12:01:53;2.38;;;1.70;;
37203;SDS011;23098;48.054;10.636;2023-03-23T12:10:17;1.87;;;1.50;;
37203;SDS011;23098;48.054;10.636;2023-03-23T12:21:03;4.30;;;1.80;;
37203;SDS011;23098;48.054;10.636;2023-03-23T12:36:22;2.58;;;1.73;;
37203;SDS011;23098;48.054;10.636;2023-03-23T12:39:08;2.00;;;1.50;;
37203;SDS011;23098;48.054;10.636;2023-03-23T12:44:47;3.92;;;1.98;;
37203;SDS011;23098;48.054;10.636;2023-03-23T12:47:21;3.22;;;1.55;;
37203;SDS011;23098;48.054;10.636;2023-03-23T12:49:56;3.80;;;1.67;;
37203;SDS011;23098;48.054;10.636;2023-03-23T12:52:49;2.25;;;1.50;;
37203;SDS011;23098;48.054;10.636;2023-03-23T12:55:21;2.53;;;1.90;;
37203;SDS011;23098;48.054;10.636;2023-03-23T13:03:33;2.13;;;1.73;;
37203;SDS011;23098;48.054;10.636;2023-03-23T13:08:39;4.20;;;1.88;;
37203;SDS011;23098;48.054;10.636;2023-03-23T13:11:21;1.98;;;1.45;;
37203;SDS011;23098;48.054;10.636;2023-03-23T13:14:14;2.35;;;1.65;;
37203;SDS011;23098;48.054;10.636;2023-03-23T13:16:54;3.95;;;2.00;;
37203;SDS011;23098;48.054;10.636;2023-03-23T13:28:17;5.38;;;1.80;;
37203;SDS011;23098;48.054;10.636;2023-03-23T13:30:53;2.38;;;1.67;;
37203;SDS011;23098;48.054;10.636;2023-03-23T13:33:31;2.90;;;1.93;;
37203;SDS011;23098;48.054;10.636;2023-03-23T13:36:03;2.90;;;1.60;;
37203;SDS011;23098;48.054;10.636;2023-03-23T13:38:31;2.58;;;1.63;;
37203;SDS011;23098;48.054;10.636;2023-03-23T13:40:57;3.05;;;1.60;;
37203;SDS011;23098;48.054;10.636;2023-03-23T13:43:32;3.03;;;1.90;;
37203;SDS011;23098;48.054;10.636;2023-03-23T13:46:09;2.30;;;1.60;;
37203;SDS011;23098;48.054;10.636;2023-03-23T13:48:49;4.25;;;1.63;;
37203;SDS011;23098;48.054;10.636;2023-03-23T13:54:12;2.05;;;1.55;;
37203;SDS011;23098;48.054;10.636;2023-03-23T13:56:43;2.22;;;1.40;;
37203;SDS011;23098;48.054;10.636;2023-03-23T14:01:54;2.92;;;1.67;;
37203;SDS011;23098;48.054;10.636;2023-03-23T14:04:22;6.80;;;1.92;;
37203;SDS011;23098;48.054;10.636;2023-03-23T14:06:56;1.95;;;1.70;;
37203;SDS011;23098;48.054;10.636;2023-03-23T14:09:39;1.75;;;1.45;;
37203;SDS011;23098;48.054;10.636;2023-03-23T14:12:14;2.65;;;1.80;;
37203;SDS011;23098;48.054;10.636;2023-03-23T14:14:50;5.50;;;1.80;;
37203;SDS011;23098;48.054;10.636;2023-03-23T14:17:24;3.53;;;1.70;;
37203;SDS011;23098;48.054;10.636;2023-03-23T14:19:51;2.72;;;1.70;;
37203;SDS011;23098;48.054;10.636;2023-03-23T14:22:38;2.45;;;1.77;;
37203;SDS011;23098;48.054;10.636;2023-03-23T14:25:11;2.92;;;1.65;;
37203;SDS011;23098;48.054;10.636;2023-03-23T14:27:42;3.08;;;1.55;;
37203;SDS011;23098;48.054;10.636;2023-03-23T14:30:12;4.07;;;1.40;;
37203;SDS011;23098;48.054;10.636;2023-03-23T14:32:46;3.13;;;1.50;;
37203;SDS011;23098;48.054;10.636;2023-03-23T14:35:21;4.95;;;1.90;;
37203;SDS011;23098;48.054;10.636;2023-03-23T14:37:56;6.65;;;1.75;;
37203;SDS011;23098;48.054;10.636;2023-03-23T14:40:22;4.90;;;2.15;;
37203;SDS011;23098;48.054;10.636;2023-03-23T14:42:52;4.30;;;1.70;;
37203;SDS011;23098;48.054;10.636;2023-03-23T14:45:19;6.38;;;1.80;;
37203;SDS011;23098;48.054;10.636;2023-03-23T14:48:05;2.50;;;1.55;;
37203;SDS011;23098;48.054;10.636;2023-03-23T14:50:41;2.30;;;1.50;;
37203;SDS011;23098;48.054;10.636;2023-03-23T14:53:31;2.65;;;1.70;;
37203;SDS011;23098;48.054;10.636;2023-03-23T14:56:03;3.75;;;1.50;;
37203;SDS011;23098;48.054;10.636;2023-03-23T14:58:35;3.03;;;1.58;;
37203;SDS011;23098;48.054;10.636;2023-03-23T15:01:02;4.47;;;1.52;;
37203;SDS011;23098;48.054;10.636;2023-03-23T15:03:34;6.37;;;1.87;;
37203;SDS011;23098;48.054;10.636;2023-03-23T15:06:05;2.03;;;1.60;;
37203;SDS011;23098;48.054;10.636;2023-03-23T15:08:37;3.67;;;1.55;;
37203;SDS011;23098;48.054;10.636;2023-03-23T15:11:08;2.67;;;1.92;;
37203;SDS011;23098;48.054;10.636;2023-03-23T15:13:49;2.50;;;1.60;;
37203;SDS011;23098;48.054;10.636;2023-03-23T15:18:50;2.00;;;1.60;;
37203;SDS011;23098;48.054;10.636;2023-03-23T15:21:29;3.65;;;1.52;;
37203;SDS011;23098;48.054;10.636;2023-03-23T15:23:59;3.05;;;1.50;;
37203;SDS011;23098;48.054;10.636;2023-03-23T15:29:00;2.77;;;1.73;;
37203;SDS011;23098;48.054;10.636;2023-03-23T15:31:32;7.32;;;1.83;;
37203;SDS011;23098;48.054;10.636;2023-03-23T15:34:01;3.33;;;1.70;;
37203;SDS011;23098;48.054;10.636;2023-03-23T15:36:31;5.55;;;1.50;;
37203;SDS011;23098;48.054;10.636;2023-03-23T15:38:58;2.28;;;1.58;;
37203;SDS011;23098;48.054;10.636;2023-03-23T15:41:26;5.20;;;2.42;;
37203;SDS011;23098;48.054;10.636;2023-03-23T15:43:54;4.65;;;1.88;;
37203;SDS011;23098;48.054;10.636;2023-03-23T15:46:24;4.57;;;1.80;;
37203;SDS011;23098;48.054;10.636;2023-03-23T15:48:54;4.07;;;1.77;;
37203;SDS011;23098;48.054;10.636;2023-03-23T15:51:34;2.85;;;1.52;;
37203;SDS011;23098;48.054;10.636;2023-03-23T15:54:00;1.63;;;1.30;;
37203;SDS011;23098;48.054;10.636;2023-03-23T15:56:26;4.40;;;1.60;;
37203;SDS011;23098;48.054;10.636;2023-03-23T15:58:52;2.30;;;1.50;;
37203;SDS011;23098;48.054;10.636;2023-03-23T16:01:18;3.33;;;1.58;;
37203;SDS011;23098;48.054;10.636;2023-03-23T16:03:49;5.60;;;1.75;;
37203;SDS011;23098;48.054;10.636;2023-03-23T16:06:18;3.75;;;1.83;;
37203;SDS011;23098;48.054;10.636;2023-03-23T16:08:45;2.72;;;1.80;;
37203;SDS011;23098;48.054;10.636;2023-03-23T16:11:11;2.45;;;1.52;;
37203;SDS011;23098;48.054;10.636;2023-03-23T16:13:38;2.67;;;1.40;;
37203;SDS011;23098;48.054;10.636;2023-03-23T16:16:06;3.92;;;2.10;;
37203;SDS011;23098;48.054;10.636;2023-03-23T16:18:37;2.90;;;1.90;;
37203;SDS011;23098;48.054;10.636;2023-03-23T16:21:03;2.47;;;1.65;;
37203;SDS011;23098;48.054;10.636;2023-03-23T16:23:29;3.33;;;2.10;;
37203;SDS011;23098;48.054;10.636;2023-03-23T16:25:55;4.00;;;2.38;;
37203;SDS011;23098;48.054;10.636;2023-03-23T16:28:20;3.83;;;2.25;;
37203;SDS011;23098;48.054;10.636;2023-03-23T16:30:46;3.85;;;2.25;;
37203;SDS011;23098;48.054;10.636;2023-03-23T16:33:12;4.57;;;2.42;;
37203;SDS011;23098;48.054;10.636;2023-03-23T16:35:37;3.20;;;2.30;;
37203;SDS011;23098;48.054;10.636;2023-03-23T16:38:03;4.50;;;2.00;;
37203;SDS011;23098;48.054;10.636;2023-03-23T16:40:30;6.45;;;2.50;;
37203;SDS011;23098;48.054;10.636;2023-03-23T16:42:58;2.60;;;1.73;;
37203;SDS011;23098;48.054;10.636;2023-03-23T16:45:23;4.03;;;2.03;;
37203;SDS011;23098;48.054;10.636;2023-03-23T16:47:51;4.60;;;2.33;;
37203;SDS011;23098;48.054;10.636;2023-03-23T16:50:19;2.95;;;1.98;;
37203;SDS011;23098;48.054;10.636;2023-03-23T16:52:45;4.85;;;2.30;;
37203;SDS011;23098;48.054;10.636;2023-03-23T16:55:11;6.32;;;2.22;;